sensor_id;sensor_type;location;lat;lon;timestamp;P1;durP1;ratioP1;P2;durP2;ratioP2
12005;SDS011;6062;47.294;12.182;2022-08-21T00:01:49;1.90;;;1.52;;
12005;SDS011;6062;47.294;12.182;2022-08-21T00:04:15;1.83;;;1.73;;
12005;SDS011;6062;47.294;12.182;2022-08-21T00:06:41;1.70;;;1.50;;
12005;SDS011;6062;47.294;12.182;2022-08-21T00:09:07;2.10;;;1.90;;
12005;SDS011;6062;47.294;12.182;2022-08-21T00:11:35;2.03;;;1.83;;
12005;SDS011;6062;47.294;12.182;2022-08-21T00:14:04;2.10;;;1.85;;
12005;SDS011;6062;47.294;12.182;2022-08-21T00:16:33;2.00;;;1.80;;
12005;SDS011;6062;47.294;12.182;2022-08-21T00:19:00;2.17;;;1.98;;
12005;SDS011;6062;47.294;12.182;2022-08-21T00:21:25;2.92;;;2.08;;
12005;SDS011;6062;47.294;12.182;2022-08-21T00:23:51;2.17;;;1.80;;
12005;SDS011;6062;47.294;12.182;2022-08-21T00:26:17;2.40;;;1.80;;
12005;SDS011;6062;47.294;12.182;2022-08-21T00:28:43;1.70;;;1.60;;
12005;SDS011;6062;47.294;12.182;2022-08-21T00:31:10;2.13;;;1.58;;
12005;SDS011;6062;47.294;12.182;2022-08-21T00:33:37;1.55;;;1.40;;
12005;SDS011;6062;47.294;12.182;2022-08-21T00:36:03;1.52;;;1.42;;
12005;SDS011;6062;47.294;12.182;2022-08-21T00:38:29;1.40;;;1.30;;
12005;SDS011;6062;47.294;12.182;2022-08-21T00:40:57;1.10;;;1.00;;
12005;SDS011;6062;47.294;12.182;2022-08-21T00:43:27;0.95;;;0.90;;
12005;SDS011;6062;47.294;12.182;2022-08-21T00:45:58;0.85;;;0.85;;
12005;SDS011;6062;47.294;12.182;2022-08-21T00:48:25;0.65;;;0.65;;
12005;SDS011;6062;47.294;12.182;2022-08-21T00:51:00;0.60;;;0.60;;
12005;SDS011;6062;47.294;12.182;2022-08-21T00:53:36;0.60;;;0.60;;
12005;SDS011;6062;47.294;12.182;2022-08-21T00:56:05;0.80;;;0.80;;
12005;SDS011;6062;47.294;12.182;2022-08-21T00:58:35;0.70;;;0.70;;
12005;SDS011;6062;47.294;12.182;2022-08-21T01:01:04;0.60;;;0.60;;
12005;SDS011;6062;47.294;12.182;2022-08-21T01:03:32;1.17;;;0.85;;
12005;SDS011;6062;47.294;12.182;2022-08-21T01:05:59;1.10;;;1.00;;
12005;SDS011;6062;47.294;12.182;2022-08-21T01:08:25;1.10;;;1.00;;
12005;SDS011;6062;47.294;12.182;2022-08-21T01:10:54;2.00;;;0.85;;
12005;SDS011;6062;47.294;12.182;2022-08-21T01:13:22;11.48;;;1.20;;
12005;SDS011;6062;47.294;12.182;2022-08-21T01:15:50;0.98;;;0.90;;
12005;SDS011;6062;47.294;12.182;2022-08-21T01:18:19;1.00;;;0.90;;
12005;SDS011;6062;47.294;12.182;2022-08-21T01:21:19;1.30;;;1.20;;
12005;SDS011;6062;47.294;12.182;2022-08-21T01:23:46;1.42;;;1.33;;
12005;SDS011;6062;47.294;12.182;2022-08-21T01:26:17;1.80;;;1.70;;
12005;SDS011;6062;47.294;12.182;2022-08-21T01:28:54;2.55;;;1.90;;
12005;SDS011;6062;47.294;12.182;2022-08-21T01:31:26;2.20;;;2.00;;
12005;SDS011;6062;47.294;12.182;2022-08-21T01:33:54;2.42;;;1.70;;
12005;SDS011;6062;47.294;12.182;2022-08-21T01:36:21;2.45;;;2.25;;
12005;SDS011;6062;47.294;12.182;2022-08-21T01:38:48;2.50;;;2.05;;
12005;SDS011;6062;47.294;12.182;2022-08-21T01:41:15;3.38;;;1.88;;
12005;SDS011;6062;47.294;12.182;2022-08-21T01:43:41;1.83;;;1.70;;
12005;SDS011;6062;47.294;12.182;2022-08-21T01:46:09;2.45;;;2.25;;
12005;SDS011;6062;47.294;12.182;2022-08-21T01:48:36;2.78;;;2.40;;
12005;SDS011;6062;47.294;12.182;2022-08-21T01:51:03;3.05;;;2.70;;
12005;SDS011;6062;47.294;12.182;2022-08-21T01:53:30;2.80;;;2.38;;
12005;SDS011;6062;47.294;12.182;2022-08-21T01:55:58;3.03;;;2.42;;
12005;SDS011;6062;47.294;12.182;2022-08-21T01:58:24;2.53;;;2.33;;
12005;SDS011;6062;47.294;12.182;2022-08-21T02:00:50;2.53;;;1.90;;
12005;SDS011;6062;47.294;12.182;2022-08-21T02:03:16;2.13;;;1.92;;
12005;SDS011;6062;47.294;12.182;2022-08-21T02:05:42;2.20;;;2.00;;
12005;SDS011;6062;47.294;12.182;2022-08-21T02:08:07;2.30;;;1.88;;
12005;SDS011;6062;47.294;12.182;2022-08-21T02:10:33;2.42;;;2.08;;
12005;SDS011;6062;47.294;12.182;2022-08-21T02:12:59;2.05;;;1.83;;
12005;SDS011;6062;47.294;12.182;2022-08-21T02:15:26;1.75;;;1.65;;
12005;SDS011;6062;47.294;12.182;2022-08-21T02:17:55;2.17;;;1.85;;
12005;SDS011;6062;47.294;12.182;2022-08-21T02:20:25;2.58;;;2.00;;
12005;SDS011;6062;47.294;12.182;2022-08-21T02:22:56;2.22;;;2.03;;
12005;SDS011;6062;47.294;12.182;2022-08-21T02:25:23;2.25;;;1.95;;
12005;SDS011;6062;47.294;12.182;2022-08-21T02:27:51;2.50;;;2.30;;
12005;SDS011;6062;47.294;12.182;2022-08-21T02:30:19;2.72;;;2.10;;
12005;SDS011;6062;47.294;12.182;2022-08-21T02:32:49;2.17;;;1.98;;
12005;SDS011;6062;47.294;12.182;2022-08-21T02:35:15;2.70;;;2.50;;
12005;SDS011;6062;47.294;12.182;2022-08-21T02:37:44;3.67;;;2.50;;
12005;SDS011;6062;47.294;12.182;2022-08-21T02:40:20;2.53;;;2.10;;
12005;SDS011;6062;47.294;12.182;2022-08-21T02:42:49;3.65;;;2.38;;
12005;SDS011;6062;47.294;12.182;2022-08-21T02:45:15;2.50;;;2.30;;
12005;SDS011;6062;47.294;12.182;2022-08-21T02:47:53;2.78;;;2.35;;
12005;SDS011;6062;47.294;12.182;2022-08-21T02:50:24;2.78;;;2.30;;
12005;SDS011;6062;47.294;12.182;2022-08-21T02:52:57;3.15;;;2.38;;
12005;SDS011;6062;47.294;12.182;2022-08-21T02:55:25;2.80;;;2.22;;
12005;SDS011;6062;47.294;12.182;2022-08-21T02:57:54;2.63;;;2.38;;
12005;SDS011;6062;47.294;12.182;2022-08-21T03:00:22;3.42;;;2.30;;
12005;SDS011;6062;47.294;12.182;2022-08-21T03:02:51;2.05;;;1.80;;
12005;SDS011;6062;47.294;12.182;2022-08-21T03:05:18;2.40;;;2.20;;
12005;SDS011;6062;47.294;12.182;2022-08-21T03:07:45;2.13;;;1.92;;
12005;SDS011;6062;47.294;12.182;2022-08-21T03:10:12;2.63;;;2.20;;
12005;SDS011;6062;47.294;12.182;2022-08-21T03:12:39;2.70;;;2.08;;
12005;SDS011;6062;47.294;12.182;2022-08-21T03:15:06;2.28;;;2.03;;
12005;SDS011;6062;47.294;12.182;2022-08-21T03:17:36;2.30;;;2.10;;
12005;SDS011;6062;47.294;12.182;2022-08-21T03:20:03;2.42;;;2.10;;
12005;SDS011;6062;47.294;12.182;2022-08-21T03:22:30;2.03;;;1.85;;
12005;SDS011;6062;47.294;12.182;2022-08-21T03:24:57;2.42;;;2.17;;
12005;SDS011;6062;47.294;12.182;2022-08-21T03:27:24;2.20;;;2.00;;
12005;SDS011;6062;47.294;12.182;2022-08-21T03:29:53;2.10;;;1.90;;
12005;SDS011;6062;47.294;12.182;2022-08-21T03:32:19;2.35;;;2.15;;
12005;SDS011;6062;47.294;12.182;2022-08-21T03:34:46;2.63;;;2.10;;
12005;SDS011;6062;47.294;12.182;2022-08-21T03:37:12;2.97;;;2.42;;
12005;SDS011;6062;47.294;12.182;2022-08-21T03:39:40;2.80;;;2.30;;
12005;SDS011;6062;47.294;12.182;2022-08-21T03:42:06;2.85;;;2.25;;
12005;SDS011;6062;47.294;12.182;2022-08-21T03:44:33;2.83;;;2.20;;
12005;SDS011;6062;47.294;12.182;2022-08-21T03:46:59;2.40;;;2.17;;
12005;SDS011;6062;47.294;12.182;2022-08-21T03:49:26;2.33;;;2.00;;
12005;SDS011;6062;47.294;12.182;2022-08-21T03:51:52;2.35;;;2.13;;
12005;SDS011;6062;47.294;12.182;2022-08-21T03:54:18;3.20;;;2.53;;
12005;SDS011;6062;47.294;12.182;2022-08-21T03:56:44;2.60;;;2.10;;
12005;SDS011;6062;47.294;12.182;2022-08-21T03:59:10;2.72;;;2.22;;
12005;SDS011;6062;47.294;12.182;2022-08-21T04:01:36;2.88;;;2.05;;
12005;SDS011;6062;47.294;12.182;2022-08-21T04:04:03;2.85;;;2.30;;
12005;SDS011;6062;47.294;12.182;2022-08-21T04:06:29;3.28;;;2.20;;
12005;SDS011;6062;47.294;12.182;2022-08-21T04:08:55;3.95;;;2.00;;
12005;SDS011;6062;47.294;12.182;2022-08-21T04:11:20;3.72;;;2.08;;
12005;SDS011;6062;47.294;12.182;2022-08-21T04:13:46;2.45;;;2.00;;
12005;SDS011;6062;47.294;12.182;2022-08-21T04:16:13;2.00;;;1.70;;
12005;SDS011;6062;47.294;12.182;2022-08-21T04:18:39;2.50;;;1.70;;
12005;SDS011;6062;47.294;12.182;2022-08-21T04:21:06;4.25;;;1.90;;
12005;SDS011;6062;47.294;12.182;2022-08-21T04:23:35;2.60;;;1.60;;
12005;SDS011;6062;47.294;12.182;2022-08-21T04:26:02;1.77;;;1.50;;
12005;SDS011;6062;47.294;12.182;2022-08-21T04:28:28;1.73;;;1.50;;
12005;SDS011;6062;47.294;12.182;2022-08-21T04:30:54;1.90;;;1.70;;
12005;SDS011;6062;47.294;12.182;2022-08-21T04:33:21;2.10;;;1.80;;
12005;SDS011;6062;47.294;12.182;2022-08-21T04:35:48;1.92;;;1.40;;
12005;SDS011;6062;47.294;12.182;2022-08-21T04:38:15;2.13;;;1.48;;
12005;SDS011;6062;47.294;12.182;2022-08-21T04:40:41;1.90;;;1.60;;
12005;SDS011;6062;47.294;12.182;2022-08-21T04:43:08;2.80;;;1.50;;
12005;SDS011;6062;47.294;12.182;2022-08-21T04:45:39;1.95;;;1.75;;
12005;SDS011;6062;47.294;12.182;2022-08-21T04:48:10;1.50;;;1.40;;
12005;SDS011;6062;47.294;12.182;2022-08-21T04:53:38;1.58;;;1.48;;
12005;SDS011;6062;47.294;12.182;2022-08-21T04:56:13;1.92;;;1.73;;
12005;SDS011;6062;47.294;12.182;2022-08-21T04:59:05;1.48;;;1.35;;
12005;SDS011;6062;47.294;12.182;2022-08-21T05:01:38;4.60;;;1.40;;
12005;SDS011;6062;47.294;12.182;2022-08-21T05:04:06;2.40;;;1.40;;
12005;SDS011;6062;47.294;12.182;2022-08-21T05:06:36;1.50;;;1.40;;
12005;SDS011;6062;47.294;12.182;2022-08-21T05:09:06;1.40;;;1.30;;
12005;SDS011;6062;47.294;12.182;2022-08-21T05:11:34;1.30;;;1.20;;
12005;SDS011;6062;47.294;12.182;2022-08-21T05:14:02;1.75;;;1.25;;
12005;SDS011;6062;47.294;12.182;2022-08-21T05:16:28;1.38;;;1.27;;
12005;SDS011;6062;47.294;12.182;2022-08-21T05:18:54;1.40;;;1.30;;
12005;SDS011;6062;47.294;12.182;2022-08-21T05:21:19;1.48;;;1.30;;
12005;SDS011;6062;47.294;12.182;2022-08-21T05:23:45;1.50;;;1.40;;
12005;SDS011;6062;47.294;12.182;2022-08-21T05:26:11;1.65;;;1.35;;
12005;SDS011;6062;47.294;12.182;2022-08-21T05:28:37;1.40;;;1.30;;
12005;SDS011;6062;47.294;12.182;2022-08-21T05:31:03;1.60;;;1.50;;
12005;SDS011;6062;47.294;12.182;2022-08-21T05:33:29;1.50;;;1.40;;
12005;SDS011;6062;47.294;12.182;2022-08-21T05:35:54;1.50;;;1.40;;
12005;SDS011;6062;47.294;12.182;2022-08-21T05:38:21;2.83;;;1.60;;
12005;SDS011;6062;47.294;12.182;2022-08-21T05:40:49;1.58;;;1.48;;
12005;SDS011;6062;47.294;12.182;2022-08-21T05:43:15;1.42;;;1.33;;
12005;SDS011;6062;47.294;12.182;2022-08-21T05:45:41;1.40;;;1.30;;
12005;SDS011;6062;47.294;12.182;2022-08-21T05:48:08;1.70;;;1.50;;
12005;SDS011;6062;47.294;12.182;2022-08-21T05:50:36;1.55;;;1.45;;
12005;SDS011;6062;47.294;12.182;2022-08-21T05:53:03;1.55;;;1.45;;
12005;SDS011;6062;47.294;12.182;2022-08-21T05:55:30;1.45;;;1.35;;
12005;SDS011;6062;47.294;12.182;2022-08-21T05:57:55;1.70;;;1.50;;
12005;SDS011;6062;47.294;12.182;2022-08-21T06:00:21;1.50;;;1.40;;
12005;SDS011;6062;47.294;12.182;2022-08-21T06:02:48;2.08;;;1.60;;
12005;SDS011;6062;47.294;12.182;2022-08-21T06:05:15;1.65;;;1.50;;
12005;SDS011;6062;47.294;12.182;2022-08-21T06:07:42;1.60;;;1.50;;
12005;SDS011;6062;47.294;12.182;2022-08-21T06:10:08;1.88;;;1.67;;
12005;SDS011;6062;47.294;12.182;2022-08-21T06:12:35;2.40;;;1.40;;
12005;SDS011;6062;47.294;12.182;2022-08-21T06:15:00;1.65;;;1.55;;
12005;SDS011;6062;47.294;12.182;2022-08-21T06:17:26;1.45;;;1.35;;
12005;SDS011;6062;47.294;12.182;2022-08-21T06:19:52;1.77;;;1.63;;
12005;SDS011;6062;47.294;12.182;2022-08-21T06:22:19;1.60;;;1.50;;
12005;SDS011;6062;47.294;12.182;2022-08-21T06:24:45;2.17;;;1.45;;
12005;SDS011;6062;47.294;12.182;2022-08-21T06:27:11;2.10;;;1.40;;
12005;SDS011;6062;47.294;12.182;2022-08-21T06:29:37;1.48;;;1.38;;
12005;SDS011;6062;47.294;12.182;2022-08-21T06:32:03;1.70;;;1.30;;
12005;SDS011;6062;47.294;12.182;2022-08-21T06:34:32;1.42;;;1.33;;
12005;SDS011;6062;47.294;12.182;2022-08-21T06:37:05;1.33;;;1.23;;
12005;SDS011;6062;47.294;12.182;2022-08-21T06:39:32;1.40;;;1.30;;
12005;SDS011;6062;47.294;12.182;2022-08-21T06:41:59;1.10;;;1.00;;
12005;SDS011;6062;47.294;12.182;2022-08-21T06:44:25;1.20;;;1.10;;
12005;SDS011;6062;47.294;12.182;2022-08-21T06:46:50;1.10;;;1.00;;
12005;SDS011;6062;47.294;12.182;2022-08-21T06:49:16;2.58;;;1.33;;
12005;SDS011;6062;47.294;12.182;2022-08-21T06:51:42;1.42;;;1.00;;
12005;SDS011;6062;47.294;12.182;2022-08-21T06:54:08;2.03;;;1.30;;
12005;SDS011;6062;47.294;12.182;2022-08-21T06:56:34;1.50;;;1.17;;
12005;SDS011;6062;47.294;12.182;2022-08-21T06:59:03;1.00;;;0.90;;
12005;SDS011;6062;47.294;12.182;2022-08-21T07:01:30;1.00;;;0.90;;
12005;SDS011;6062;47.294;12.182;2022-08-21T07:03:57;1.25;;;1.15;;
12005;SDS011;6062;47.294;12.182;2022-08-21T07:06:23;1.40;;;1.20;;
12005;SDS011;6062;47.294;12.182;2022-08-21T07:08:49;1.35;;;1.23;;
12005;SDS011;6062;47.294;12.182;2022-08-21T07:11:20;1.20;;;1.00;;
12005;SDS011;6062;47.294;12.182;2022-08-21T07:13:49;1.02;;;0.93;;
12005;SDS011;6062;47.294;12.182;2022-08-21T07:16:17;1.08;;;0.98;;
12005;SDS011;6062;47.294;12.182;2022-08-21T07:18:44;1.30;;;1.20;;
12005;SDS011;6062;47.294;12.182;2022-08-21T07:21:11;1.67;;;1.30;;
12005;SDS011;6062;47.294;12.182;2022-08-21T07:23:38;1.10;;;1.00;;
12005;SDS011;6062;47.294;12.182;2022-08-21T07:26:08;1.02;;;0.95;;
12005;SDS011;6062;47.294;12.182;2022-08-21T07:28:36;1.55;;;1.10;;
12005;SDS011;6062;47.294;12.182;2022-08-21T07:31:02;0.93;;;0.90;;
12005;SDS011;6062;47.294;12.182;2022-08-21T07:33:30;1.02;;;0.98;;
12005;SDS011;6062;47.294;12.182;2022-08-21T07:35:59;1.10;;;1.00;;
12005;SDS011;6062;47.294;12.182;2022-08-21T07:38:25;1.02;;;0.93;;
12005;SDS011;6062;47.294;12.182;2022-08-21T07:40:52;1.08;;;0.98;;
12005;SDS011;6062;47.294;12.182;2022-08-21T07:43:23;0.80;;;0.80;;
12005;SDS011;6062;47.294;12.182;2022-08-21T07:45:50;1.10;;;0.90;;
12005;SDS011;6062;47.294;12.182;2022-08-21T07:48:16;1.23;;;1.00;;
12005;SDS011;6062;47.294;12.182;2022-08-21T07:50:43;0.90;;;0.90;;
12005;SDS011;6062;47.294;12.182;2022-08-21T07:53:09;1.13;;;0.65;;
12005;SDS011;6062;47.294;12.182;2022-08-21T07:55:35;0.93;;;0.70;;
12005;SDS011;6062;47.294;12.182;2022-08-21T07:58:00;0.85;;;0.80;;
12005;SDS011;6062;47.294;12.182;2022-08-21T08:00:27;0.98;;;0.60;;
12005;SDS011;6062;47.294;12.182;2022-08-21T08:02:54;1.08;;;0.70;;
12005;SDS011;6062;47.294;12.182;2022-08-21T08:05:22;0.80;;;0.70;;
12005;SDS011;6062;47.294;12.182;2022-08-21T08:07:51;0.98;;;0.80;;
12005;SDS011;6062;47.294;12.182;2022-08-21T08:10:17;1.00;;;0.65;;
12005;SDS011;6062;47.294;12.182;2022-08-21T08:12:44;1.10;;;0.80;;
12005;SDS011;6062;47.294;12.182;2022-08-21T08:15:12;2.10;;;1.50;;
12005;SDS011;6062;47.294;12.182;2022-08-21T08:17:44;3.30;;;2.58;;
12005;SDS011;6062;47.294;12.182;2022-08-21T08:20:11;2.70;;;2.13;;
12005;SDS011;6062;47.294;12.182;2022-08-21T08:22:39;5.68;;;4.22;;
12005;SDS011;6062;47.294;12.182;2022-08-21T08:25:07;2.35;;;1.92;;
12005;SDS011;6062;47.294;12.182;2022-08-21T08:27:34;3.85;;;3.55;;
12005;SDS011;6062;47.294;12.182;2022-08-21T08:30:01;1.38;;;1.27;;
12005;SDS011;6062;47.294;12.182;2022-08-21T08:32:28;1.20;;;1.10;;
12005;SDS011;6062;47.294;12.182;2022-08-21T08:34:54;0.60;;;0.60;;
12005;SDS011;6062;47.294;12.182;2022-08-21T08:37:20;0.65;;;0.50;;
12005;SDS011;6062;47.294;12.182;2022-08-21T08:39:46;1.30;;;0.80;;
12005;SDS011;6062;47.294;12.182;2022-08-21T08:42:17;1.02;;;0.63;;
12005;SDS011;6062;47.294;12.182;2022-08-21T08:44:55;1.00;;;0.80;;
12005;SDS011;6062;47.294;12.182;2022-08-21T08:47:28;1.25;;;1.10;;
12005;SDS011;6062;47.294;12.182;2022-08-21T08:52:48;1.25;;;0.90;;
12005;SDS011;6062;47.294;12.182;2022-08-21T08:55:33;2.25;;;0.82;;
12005;SDS011;6062;47.294;12.182;2022-08-21T08:58:04;1.65;;;0.70;;
12005;SDS011;6062;47.294;12.182;2022-08-21T09:00:30;0.82;;;0.70;;
12005;SDS011;6062;47.294;12.182;2022-08-21T09:02:59;0.50;;;0.50;;
12005;SDS011;6062;47.294;12.182;2022-08-21T09:17:19;0.60;;;0.60;;
12005;SDS011;6062;47.294;12.182;2022-08-21T09:26:07;0.63;;;0.60;;
12005;SDS011;6062;47.294;12.182;2022-08-21T09:28:42;0.82;;;0.80;;
12005;SDS011;6062;47.294;12.182;2022-08-21T09:31:21;0.95;;;0.73;;
12005;SDS011;6062;47.294;12.182;2022-08-21T09:33:58;1.45;;;0.90;;
12005;SDS011;6062;47.294;12.182;2022-08-21T09:36:36;1.10;;;0.80;;
12005;SDS011;6062;47.294;12.182;2022-08-21T09:39:09;1.65;;;0.90;;
12005;SDS011;6062;47.294;12.182;2022-08-21T09:41:37;0.93;;;0.75;;
12005;SDS011;6062;47.294;12.182;2022-08-21T09:44:06;1.40;;;0.80;;
12005;SDS011;6062;47.294;12.182;2022-08-21T09:46:34;0.82;;;0.70;;
12005;SDS011;6062;47.294;12.182;2022-08-21T09:49:02;2.38;;;1.05;;
12005;SDS011;6062;47.294;12.182;2022-08-21T09:51:30;1.20;;;1.00;;
12005;SDS011;6062;47.294;12.182;2022-08-21T09:56:35;1.15;;;0.90;;
12005;SDS011;6062;47.294;12.182;2022-08-21T10:01:58;1.00;;;0.90;;
12005;SDS011;6062;47.294;12.182;2022-08-21T10:04:28;1.55;;;1.00;;
12005;SDS011;6062;47.294;12.182;2022-08-21T10:07:13;1.13;;;0.95;;
12005;SDS011;6062;47.294;12.182;2022-08-21T10:09:40;1.27;;;0.98;;
12005;SDS011;6062;47.294;12.182;2022-08-21T10:12:09;1.85;;;1.52;;
12005;SDS011;6062;47.294;12.182;2022-08-21T10:20:25;1.20;;;0.80;;
12005;SDS011;6062;47.294;12.182;2022-08-21T10:26:34;1.30;;;0.95;;
12005;SDS011;6062;47.294;12.182;2022-08-21T10:35:27;1.00;;;0.90;;
12005;SDS011;6062;47.294;12.182;2022-08-21T10:38:07;1.38;;;1.10;;
12005;SDS011;6062;47.294;12.182;2022-08-21T10:47:08;1.67;;;1.00;;
12005;SDS011;6062;47.294;12.182;2022-08-21T10:49:51;0.90;;;0.80;;
12005;SDS011;6062;47.294;12.182;2022-08-21T10:55:35;2.15;;;1.00;;
12005;SDS011;6062;47.294;12.182;2022-08-21T10:58:29;1.30;;;1.00;;
12005;SDS011;6062;47.294;12.182;2022-08-21T11:01:26;1.25;;;0.93;;
12005;SDS011;6062;47.294;12.182;2022-08-21T11:04:19;1.27;;;1.17;;
12005;SDS011;6062;47.294;12.182;2022-08-21T11:07:16;1.10;;;1.00;;
12005;SDS011;6062;47.294;12.182;2022-08-21T11:10:13;1.08;;;0.98;;
12005;SDS011;6062;47.294;12.182;2022-08-21T11:12:58;2.08;;;1.00;;
12005;SDS011;6062;47.294;12.182;2022-08-21T11:16:10;1.23;;;0.90;;
12005;SDS011;6062;47.294;12.182;2022-08-21T11:19:02;0.95;;;0.90;;
12005;SDS011;6062;47.294;12.182;2022-08-21T11:25:03;0.80;;;0.80;;
12005;SDS011;6062;47.294;12.182;2022-08-21T11:27:46;1.98;;;1.08;;
12005;SDS011;6062;47.294;12.182;2022-08-21T11:30:22;1.00;;;0.90;;
12005;SDS011;6062;47.294;12.182;2022-08-21T11:33:04;1.50;;;1.10;;
12005;SDS011;6062;47.294;12.182;2022-08-21T11:35:50;1.13;;;0.95;;
12005;SDS011;6062;47.294;12.182;2022-08-21T11:38:50;1.10;;;0.98;;
12005;SDS011;6062;47.294;12.182;2022-08-21T11:41:40;1.73;;;1.20;;
12005;SDS011;6062;47.294;12.182;2022-08-21T11:50:14;1.25;;;1.15;;
12005;SDS011;6062;47.294;12.182;2022-08-21T11:52:56;1.40;;;1.00;;
12005;SDS011;6062;47.294;12.182;2022-08-21T11:55:41;1.38;;;1.05;;
12005;SDS011;6062;47.294;12.182;2022-08-21T12:00:52;1.20;;;1.10;;
12005;SDS011;6062;47.294;12.182;2022-08-21T12:03:34;1.50;;;1.40;;
12005;SDS011;6062;47.294;12.182;2022-08-21T12:06:10;1.42;;;1.13;;
12005;SDS011;6062;47.294;12.182;2022-08-21T12:08:40;1.00;;;0.90;;
12005;SDS011;6062;47.294;12.182;2022-08-21T12:11:22;1.85;;;1.20;;
12005;SDS011;6062;47.294;12.182;2022-08-21T12:16:33;1.05;;;0.95;;
12005;SDS011;6062;47.294;12.182;2022-08-21T12:21:48;2.03;;;1.27;;
12005;SDS011;6062;47.294;12.182;2022-08-21T12:26:54;1.52;;;1.30;;
12005;SDS011;6062;47.294;12.182;2022-08-21T12:29:33;2.17;;;1.08;;
12005;SDS011;6062;47.294;12.182;2022-08-21T12:32:03;1.10;;;1.00;;
12005;SDS011;6062;47.294;12.182;2022-08-21T12:34:36;1.80;;;1.30;;
12005;SDS011;6062;47.294;12.182;2022-08-21T12:37:15;1.45;;;1.10;;
12005;SDS011;6062;47.294;12.182;2022-08-21T12:40:23;1.80;;;1.40;;
12005;SDS011;6062;47.294;12.182;2022-08-21T12:42:58;1.60;;;1.20;;
12005;SDS011;6062;47.294;12.182;2022-08-21T12:48:00;1.48;;;1.17;;
12005;SDS011;6062;47.294;12.182;2022-08-21T12:50:37;1.77;;;1.33;;
12005;SDS011;6062;47.294;12.182;2022-08-21T12:56:10;1.25;;;1.10;;
12005;SDS011;6062;47.294;12.182;2022-08-21T12:58:44;1.65;;;1.27;;
12005;SDS011;6062;47.294;12.182;2022-08-21T13:01:25;1.90;;;1.30;;
12005;SDS011;6062;47.294;12.182;2022-08-21T13:04:00;1.90;;;1.30;;
12005;SDS011;6062;47.294;12.182;2022-08-21T13:06:36;1.52;;;1.30;;
12005;SDS011;6062;47.294;12.182;2022-08-21T13:09:07;1.90;;;1.30;;
12005;SDS011;6062;47.294;12.182;2022-08-21T13:11:39;1.42;;;1.20;;
12005;SDS011;6062;47.294;12.182;2022-08-21T13:14:24;2.90;;;1.30;;
12005;SDS011;6062;47.294;12.182;2022-08-21T13:17:05;1.63;;;1.10;;
12005;SDS011;6062;47.294;12.182;2022-08-21T13:19:33;1.95;;;1.50;;
12005;SDS011;6062;47.294;12.182;2022-08-21T13:22:00;1.60;;;1.38;;
12005;SDS011;6062;47.294;12.182;2022-08-21T13:24:29;1.83;;;1.40;;
12005;SDS011;6062;47.294;12.182;2022-08-21T13:27:00;1.40;;;1.30;;
12005;SDS011;6062;47.294;12.182;2022-08-21T13:29:30;1.75;;;1.30;;
12005;SDS011;6062;47.294;12.182;2022-08-21T13:32:02;1.35;;;1.25;;
12005;SDS011;6062;47.294;12.182;2022-08-21T13:34:33;1.98;;;1.35;;
12005;SDS011;6062;47.294;12.182;2022-08-21T13:37:04;1.75;;;1.23;;
12005;SDS011;6062;47.294;12.182;2022-08-21T13:39:33;1.65;;;1.20;;
12005;SDS011;6062;47.294;12.182;2022-08-21T13:42:02;1.42;;;1.33;;
12005;SDS011;6062;47.294;12.182;2022-08-21T13:44:35;1.92;;;1.35;;
12005;SDS011;6062;47.294;12.182;2022-08-21T13:47:06;2.20;;;1.20;;
12005;SDS011;6062;47.294;12.182;2022-08-21T13:49:37;1.40;;;1.20;;
12005;SDS011;6062;47.294;12.182;2022-08-21T13:52:18;1.75;;;1.25;;
12005;SDS011;6062;47.294;12.182;2022-08-21T13:54:58;2.38;;;1.35;;
12005;SDS011;6062;47.294;12.182;2022-08-21T13:57:37;4.05;;;1.63;;
12005;SDS011;6062;47.294;12.182;2022-08-21T14:00:43;2.55;;;1.33;;
12005;SDS011;6062;47.294;12.182;2022-08-21T14:03:07;1.30;;;1.20;;
12005;SDS011;6062;47.294;12.182;2022-08-21T14:05:36;1.70;;;1.30;;
12005;SDS011;6062;47.294;12.182;2022-08-21T14:08:20;1.42;;;1.02;;
12005;SDS011;6062;47.294;12.182;2022-08-21T14:10:59;2.50;;;1.40;;
12005;SDS011;6062;47.294;12.182;2022-08-21T14:16:13;1.55;;;1.38;;
12005;SDS011;6062;47.294;12.182;2022-08-21T14:19:09;1.60;;;1.30;;
12005;SDS011;6062;47.294;12.182;2022-08-21T14:21:44;1.40;;;1.20;;
12005;SDS011;6062;47.294;12.182;2022-08-21T14:24:30;1.65;;;1.35;;
12005;SDS011;6062;47.294;12.182;2022-08-21T14:26:57;1.58;;;1.35;;
12005;SDS011;6062;47.294;12.182;2022-08-21T14:29:34;2.63;;;1.20;;
12005;SDS011;6062;47.294;12.182;2022-08-21T14:32:12;3.50;;;1.92;;
12005;SDS011;6062;47.294;12.182;2022-08-21T14:34:44;2.45;;;2.13;;
12005;SDS011;6062;47.294;12.182;2022-08-21T14:37:10;2.55;;;2.35;;
12005;SDS011;6062;47.294;12.182;2022-08-21T14:39:36;4.80;;;2.20;;
12005;SDS011;6062;47.294;12.182;2022-08-21T14:42:02;3.50;;;2.60;;
12005;SDS011;6062;47.294;12.182;2022-08-21T14:44:29;1.90;;;1.40;;
12005;SDS011;6062;47.294;12.182;2022-08-21T14:46:55;2.28;;;1.60;;
12005;SDS011;6062;47.294;12.182;2022-08-21T14:49:21;4.68;;;3.90;;
12005;SDS011;6062;47.294;12.182;2022-08-21T14:51:51;10.32;;;8.20;;
12005;SDS011;6062;47.294;12.182;2022-08-21T14:54:21;5.15;;;4.32;;
12005;SDS011;6062;47.294;12.182;2022-08-21T14:56:52;4.95;;;2.85;;
12005;SDS011;6062;47.294;12.182;2022-08-21T14:59:19;3.15;;;2.60;;
12005;SDS011;6062;47.294;12.182;2022-08-21T15:01:46;3.53;;;2.63;;
12005;SDS011;6062;47.294;12.182;2022-08-21T15:04:12;2.97;;;1.80;;
12005;SDS011;6062;47.294;12.182;2022-08-21T15:06:38;3.25;;;1.55;;
12005;SDS011;6062;47.294;12.182;2022-08-21T15:09:04;2.05;;;1.30;;
12005;SDS011;6062;47.294;12.182;2022-08-21T15:11:30;2.70;;;1.92;;
12005;SDS011;6062;47.294;12.182;2022-08-21T15:14:00;8.25;;;4.93;;
12005;SDS011;6062;47.294;12.182;2022-08-21T15:16:32;9.20;;;4.82;;
12005;SDS011;6062;47.294;12.182;2022-08-21T15:19:00;5.95;;;3.92;;
12005;SDS011;6062;47.294;12.182;2022-08-21T15:21:25;4.82;;;3.08;;
12005;SDS011;6062;47.294;12.182;2022-08-21T15:23:51;3.00;;;2.38;;
12005;SDS011;6062;47.294;12.182;2022-08-21T15:26:22;3.53;;;3.22;;
12005;SDS011;6062;47.294;12.182;2022-08-21T15:28:48;3.45;;;3.15;;
12005;SDS011;6062;47.294;12.182;2022-08-21T15:31:14;2.65;;;2.45;;
12005;SDS011;6062;47.294;12.182;2022-08-21T15:33:40;3.13;;;2.35;;
12005;SDS011;6062;47.294;12.182;2022-08-21T15:36:05;2.60;;;2.13;;
12005;SDS011;6062;47.294;12.182;2022-08-21T15:38:32;2.40;;;2.00;;
12005;SDS011;6062;47.294;12.182;2022-08-21T15:40:57;44.67;;;16.50;;
12005;SDS011;6062;47.294;12.182;2022-08-21T15:43:24;67.68;;;23.15;;
12005;SDS011;6062;47.294;12.182;2022-08-21T15:45:54;31.45;;;13.43;;
12005;SDS011;6062;47.294;12.182;2022-08-21T15:48:21;30.48;;;16.90;;
12005;SDS011;6062;47.294;12.182;2022-08-21T15:50:47;69.53;;;30.92;;
12005;SDS011;6062;47.294;12.182;2022-08-21T15:53:13;32.72;;;16.95;;
12005;SDS011;6062;47.294;12.182;2022-08-21T15:55:39;21.60;;;11.55;;
12005;SDS011;6062;47.294;12.182;2022-08-21T15:58:06;37.67;;;17.88;;
12005;SDS011;6062;47.294;12.182;2022-08-21T16:00:34;52.72;;;27.13;;
12005;SDS011;6062;47.294;12.182;2022-08-21T16:03:03;33.78;;;17.45;;
12005;SDS011;6062;47.294;12.182;2022-08-21T16:05:31;35.90;;;18.17;;
12005;SDS011;6062;47.294;12.182;2022-08-21T16:07:57;79.20;;;40.08;;
12005;SDS011;6062;47.294;12.182;2022-08-21T16:10:23;48.70;;;26.85;;
12005;SDS011;6062;47.294;12.182;2022-08-21T16:12:51;27.73;;;15.50;;
12005;SDS011;6062;47.294;12.182;2022-08-21T16:15:25;39.05;;;25.33;;
12005;SDS011;6062;47.294;12.182;2022-08-21T16:17:51;45.47;;;30.45;;
12005;SDS011;6062;47.294;12.182;2022-08-21T16:20:25;47.63;;;28.33;;
12005;SDS011;6062;47.294;12.182;2022-08-21T16:22:55;31.23;;;19.25;;
12005;SDS011;6062;47.294;12.182;2022-08-21T16:25:22;43.20;;;24.00;;
12005;SDS011;6062;47.294;12.182;2022-08-21T16:27:50;16.88;;;11.13;;